createdAt,value
2017-10-21T00:00:08.494Z,89.68
2017-10-21T00:02:34.850Z,90.03
2017-10-21T00:05:01.193Z,89.90
2017-10-21T00:07:27.501Z,89.47
2017-10-21T00:09:53.852Z,89.21
2017-10-21T00:12:20.174Z,88.72
2017-10-21T00:14:46.568Z,88.56
2017-10-21T00:17:12.817Z,88.61
2017-10-21T00:19:39.076Z,88.73
2017-10-21T00:22:05.393Z,89.23
2017-10-21T00:24:31.739Z,89.39
2017-10-21T00:26:58.058Z,89.32
2017-10-21T00:29:24.387Z,89.72
2017-10-21T00:31:50.710Z,89.36
2017-10-21T00:34:17.119Z,89.17
2017-10-21T00:36:43.371Z,89.45
2017-10-21T00:39:09.625Z,89.94
2017-10-21T00:41:35.954Z,90.19
2017-10-21T00:44:02.267Z,89.74
2017-10-21T00:46:28.499Z,89.25
2017-10-21T00:48:54.732Z,88.97
2017-10-21T00:51:21.077Z,88.67
2017-10-21T00:53:47.412Z,88.80
2017-10-21T00:56:13.741Z,88.78
2017-10-21T00:58:40.082Z,88.90
2017-10-21T01:01:06.466Z,89.59
2017-10-21T01:03:32.727Z,89.14
2017-10-21T01:05:59.060Z,88.96
2017-10-21T01:08:25.401Z,89.72
2017-10-21T01:10:51.732Z,89.64
2017-10-21T01:13:18.051Z,88.89
2017-10-21T01:15:44.376Z,88.84
2017-10-21T01:18:10.711Z,89.08
2017-10-21T01:20:37.076Z,89.62
2017-10-21T01:23:03.399Z,89.70
2017-10-21T01:25:29.630Z,89.27
2017-10-21T01:27:55.972Z,88.79
2017-10-21T01:30:22.282Z,88.80
2017-10-21T01:32:48.683Z,89.00
2017-10-21T01:35:14.947Z,88.93
2017-10-21T01:37:41.284Z,89.15
2017-10-21T01:40:07.610Z,89.19
2017-10-21T01:42:33.953Z,89.01
2017-10-21T01:45:00.278Z,87.82
2017-10-21T01:47:26.616Z,88.42
2017-10-21T01:49:52.939Z,88.28
2017-10-21T01:52:19.273Z,88.56
2017-10-21T01:54:45.610Z,89.14
2017-10-21T01:57:11.934Z,88.85
2017-10-21T01:59:38.270Z,88.91
2017-10-21T02:02:04.609Z,88.54
2017-10-21T02:04:30.961Z,88.38
2017-10-21T02:06:57.272Z,88.35
2017-10-21T02:09:23.605Z,88.48
2017-10-21T02:11:49.926Z,88.52
2017-10-21T02:14:16.263Z,88.51
2017-10-21T02:16:42.604Z,89.65
2017-10-21T02:19:08.911Z,89.04
2017-10-21T02:21:35.143Z,88.70
2017-10-21T02:24:01.393Z,88.92
2017-10-21T02:26:27.713Z,88.96
2017-10-21T02:28:54.062Z,89.48
2017-10-21T02:31:20.373Z,89.60
2017-10-21T02:33:46.608Z,89.39
2017-10-21T02:36:12.959Z,89.26
2017-10-21T02:38:39.284Z,89.32
2017-10-21T02:41:05.601Z,89.41
2017-10-21T02:43:31.942Z,89.32
2017-10-21T02:45:58.258Z,88.85
2017-10-21T02:48:24.497Z,88.36
2017-10-21T02:50:50.832Z,88.03
2017-10-21T02:53:17.177Z,87.86
2017-10-21T02:55:43.492Z,87.95
2017-10-21T02:58:09.742Z,87.36
2017-10-21T03:00:36.075Z,87.58
2017-10-21T03:03:02.395Z,88.45
2017-10-21T03:05:28.707Z,88.39
2017-10-21T03:07:54.961Z,88.30
2017-10-21T03:10:21.277Z,88.36
2017-10-21T03:12:47.522Z,88.03
2017-10-21T03:15:13.853Z,87.74
2017-10-21T03:17:40.201Z,87.65
2017-10-21T03:20:06.516Z,88.74
2017-10-21T03:22:32.844Z,88.60
2017-10-21T03:24:59.185Z,89.15
2017-10-21T03:27:25.512Z,89.32
2017-10-21T03:29:51.844Z,88.86
2017-10-21T03:32:18.165Z,88.93
2017-10-21T03:34:44.547Z,89.16
2017-10-21T03:37:10.845Z,89.56
2017-10-21T03:39:37.178Z,89.55
2017-10-21T03:42:03.510Z,89.09
2017-10-21T03:44:29.851Z,89.03
2017-10-21T03:46:56.167Z,88.97
2017-10-21T03:49:22.511Z,88.72
2017-10-21T03:51:48.835Z,88.56
2017-10-21T03:54:15.177Z,88.69
2017-10-21T03:56:41.498Z,89.05
2017-10-21T03:59:07.821Z,88.77
2017-10-21T04:01:34.067Z,89.11
2017-10-21T04:04:00.383Z,89.43
2017-10-21T04:06:26.726Z,89.49
2017-10-21T04:08:53.054Z,89.57
2017-10-21T04:11:19.388Z,89.52
2017-10-21T04:13:45.726Z,89.25
2017-10-21T04:16:12.052Z,89.24
2017-10-21T04:18:38.375Z,89.26
2017-10-21T04:21:04.591Z,89.09
2017-10-21T04:23:30.955Z,89.64
2017-10-21T04:25:57.292Z,89.45
2017-10-21T04:28:23.613Z,89.78
2017-10-21T04:30:49.949Z,90.41
2017-10-21T04:33:16.264Z,90.35
2017-10-21T04:35:42.626Z,89.84
2017-10-21T04:38:08.939Z,89.51
2017-10-21T04:40:35.283Z,89.53
2017-10-21T04:43:01.660Z,89.66
2017-10-21T04:45:27.942Z,90.66
2017-10-21T04:47:54.310Z,89.91
2017-10-21T04:50:20.590Z,89.89
2017-10-21T04:52:46.929Z,89.95
2017-10-21T04:55:13.280Z,91.53
2017-10-21T04:57:39.632Z,91.37
2017-10-21T05:00:05.920Z,91.17
2017-10-21T05:02:32.278Z,91.12
2017-10-21T05:04:58.575Z,91.04
2017-10-21T05:07:24.929Z,90.93
2017-10-21T05:09:51.257Z,89.83
2017-10-21T05:12:17.536Z,86.64
2017-10-21T05:14:43.835Z,87.59
2017-10-21T05:17:10.066Z,87.79
2017-10-21T05:19:36.374Z,87.58
2017-10-21T05:22:02.710Z,86.99
2017-10-21T05:24:29.041Z,86.64
2017-10-21T05:26:55.380Z,87.49
2017-10-21T05:29:21.733Z,82.12
2017-10-21T05:31:48.055Z,78.37
2017-10-21T05:34:14.444Z,77.26
2017-10-21T05:36:40.812Z,76.88
2017-10-21T05:39:07.184Z,66.62
2017-10-21T05:41:33.493Z,64.32
2017-10-21T05:43:59.812Z,62.09
2017-10-21T05:46:26.198Z,61.12
2017-10-21T05:48:52.565Z,57.40
2017-10-21T05:51:18.831Z,54.87
2017-10-21T05:53:47.357Z,52.57
2017-10-21T05:56:13.766Z,51.18
2017-10-21T05:58:40.050Z,51.41
2017-10-21T06:01:06.392Z,51.45
2017-10-21T06:03:32.707Z,51.14
2017-10-21T06:05:59.052Z,49.30
2017-10-21T06:08:25.403Z,49.61
2017-10-21T06:10:51.714Z,50.39
2017-10-21T06:13:18.008Z,48.48
2017-10-21T06:15:44.278Z,45.97
2017-10-21T06:18:10.548Z,50.89
2017-10-21T06:20:36.831Z,53.08
2017-10-21T06:23:03.328Z,56.10
2017-10-21T06:25:29.688Z,54.17
2017-10-21T06:27:55.922Z,51.24
2017-10-21T06:30:22.142Z,50.38
2017-10-21T06:32:48.386Z,51.36
2017-10-21T06:35:14.628Z,48.32
2017-10-21T06:37:40.892Z,45.52
2017-10-21T06:40:07.116Z,44.74
2017-10-21T06:42:33.400Z,45.11
2017-10-21T06:44:59.609Z,45.75
2017-10-21T06:47:25.835Z,43.34
2017-10-21T06:49:52.103Z,45.31
2017-10-21T06:52:18.392Z,47.74
2017-10-21T06:54:44.646Z,51.08
2017-10-21T06:57:10.884Z,50.55
2017-10-21T06:59:37.145Z,51.09
2017-10-21T07:02:03.415Z,49.82
2017-10-21T07:04:29.678Z,49.63
2017-10-21T07:06:55.917Z,48.03
2017-10-21T07:09:22.195Z,45.55
2017-10-21T07:11:48.496Z,44.18
2017-10-21T07:14:14.772Z,44.15
2017-10-21T07:16:41.017Z,43.80
2017-10-21T07:19:07.305Z,43.39
2017-10-21T07:21:33.566Z,42.38
2017-10-21T07:23:59.850Z,42.77
2017-10-21T07:26:26.125Z,40.01
2017-10-21T07:28:52.362Z,40.50
2017-10-21T07:31:18.582Z,40.38
2017-10-21T07:33:44.819Z,38.71
2017-10-21T07:36:11.119Z,38.66
2017-10-21T07:38:37.410Z,40.52
2017-10-21T07:41:03.656Z,41.10
2017-10-21T07:43:29.910Z,42.51
2017-10-21T07:45:56.161Z,42.46
2017-10-21T07:48:22.387Z,41.39
2017-10-21T07:50:48.681Z,38.44
2017-10-21T07:53:14.922Z,38.42
2017-10-21T07:55:41.211Z,39.34
2017-10-21T07:58:07.461Z,38.18
2017-10-21T08:00:33.726Z,39.29
2017-10-21T08:03:00.012Z,39.21
2017-10-21T08:05:26.289Z,38.97
2017-10-21T08:07:52.547Z,39.49
2017-10-21T08:10:18.778Z,39.26
2017-10-21T08:12:45.031Z,37.33
2017-10-21T08:15:11.366Z,36.49
2017-10-21T08:17:37.623Z,36.36
2017-10-21T08:20:03.859Z,35.05
2017-10-21T08:22:30.109Z,35.51
2017-10-21T08:24:56.359Z,35.39
2017-10-21T08:27:22.633Z,34.01
2017-10-21T08:29:48.894Z,34.46
2017-10-21T08:32:15.136Z,34.28
2017-10-21T08:34:41.392Z,33.98
2017-10-21T08:37:07.658Z,33.68
2017-10-21T08:39:33.935Z,33.07
2017-10-21T08:42:00.207Z,33.67
2017-10-21T08:44:26.433Z,32.32
2017-10-21T08:46:52.690Z,31.50
2017-10-21T08:49:18.946Z,31.78
2017-10-21T08:51:45.263Z,31.63
2017-10-21T08:54:11.591Z,30.74
2017-10-21T08:56:37.857Z,30.67
2017-10-21T08:59:04.143Z,28.93
2017-10-21T09:01:30.381Z,29.28
2017-10-21T09:03:56.658Z,29.00
2017-10-21T09:06:22.910Z,28.08
2017-10-21T09:08:49.147Z,29.06
2017-10-21T09:11:15.397Z,30.22
2017-10-21T09:13:41.666Z,28.68
2017-10-21T09:16:07.951Z,27.99
2017-10-21T09:18:34.194Z,28.13
2017-10-21T09:21:00.422Z,27.86
2017-10-21T09:23:26.672Z,29.56
2017-10-21T09:25:52.900Z,30.77
2017-10-21T09:28:19.201Z,28.09
2017-10-21T09:30:45.440Z,27.29
2017-10-21T09:33:11.676Z,28.23
2017-10-21T09:35:37.914Z,28.95
2017-10-21T09:38:04.161Z,30.64
2017-10-21T09:40:30.441Z,29.16
2017-10-21T09:42:56.685Z,29.65
2017-10-21T09:45:22.943Z,30.15
2017-10-21T09:47:49.261Z,29.68
2017-10-21T09:50:15.526Z,29.28
2017-10-21T09:52:41.808Z,30.03
2017-10-21T09:55:08.065Z,30.18
2017-10-21T09:57:34.311Z,29.88
2017-10-21T10:00:00.572Z,30.78
2017-10-21T10:02:26.822Z,30.53
2017-10-21T10:04:53.072Z,31.13
2017-10-21T10:07:19.364Z,30.98
2017-10-21T10:09:45.603Z,31.12
2017-10-21T10:12:11.914Z,30.70
2017-10-21T10:14:38.173Z,31.06
2017-10-21T10:17:04.423Z,31.13
2017-10-21T10:19:30.701Z,31.88
2017-10-21T10:21:56.966Z,31.71
2017-10-21T10:24:23.248Z,30.84
2017-10-21T10:26:49.510Z,30.49
2017-10-21T10:29:15.760Z,30.66
2017-10-21T10:31:42.008Z,30.46
2017-10-21T10:34:08.255Z,30.67
2017-10-21T10:36:34.522Z,28.96
2017-10-21T10:39:00.781Z,28.79
2017-10-21T10:41:27.029Z,27.85
2017-10-21T10:43:53.272Z,28.03
2017-10-21T10:46:19.501Z,28.91
2017-10-21T10:48:45.787Z,26.80
2017-10-21T10:51:12.032Z,27.21
2017-10-21T10:53:38.293Z,27.81
2017-10-21T10:56:04.548Z,28.56
2017-10-21T10:58:30.817Z,27.36
2017-10-21T11:00:57.142Z,28.08
2017-10-21T11:03:23.422Z,27.66
2017-10-21T11:05:49.675Z,28.17
2017-10-21T11:08:16.376Z,27.46
2017-10-21T11:10:42.707Z,27.19
2017-10-21T11:13:09.041Z,27.26
2017-10-21T11:15:35.351Z,27.12
2017-10-21T11:18:01.787Z,27.09
2017-10-21T11:20:28.128Z,28.47
2017-10-21T11:22:54.446Z,29.68
2017-10-21T11:25:20.791Z,28.90
2017-10-21T11:27:47.165Z,26.88
2017-10-21T11:30:13.466Z,27.81
2017-10-21T11:32:39.777Z,27.75
2017-10-21T11:35:06.091Z,26.90
2017-10-21T11:37:32.432Z,26.38
2017-10-21T11:39:58.772Z,26.76
2017-10-21T11:42:25.088Z,26.24
2017-10-21T11:44:51.436Z,25.66
2017-10-21T11:47:17.694Z,26.34
2017-10-21T11:49:43.974Z,25.57
2017-10-21T11:52:10.221Z,24.31
2017-10-21T11:54:36.467Z,26.52
2017-10-21T11:57:02.776Z,25.72
2017-10-21T11:59:29.102Z,25.71
2017-10-21T12:01:55.396Z,25.82
2017-10-21T12:04:21.655Z,25.59
2017-10-21T12:06:47.892Z,25.74
2017-10-21T12:09:14.188Z,25.24
2017-10-21T12:11:40.408Z,24.68
2017-10-21T12:14:06.717Z,24.88
2017-10-21T12:16:32.956Z,24.36
2017-10-21T12:18:59.195Z,24.68
2017-10-21T12:21:25.550Z,25.33
2017-10-21T12:23:51.824Z,25.21
2017-10-21T12:26:18.069Z,25.47
2017-10-21T12:28:44.347Z,25.39
2017-10-21T12:31:10.620Z,25.98
2017-10-21T12:33:36.901Z,25.67
2017-10-21T12:36:03.140Z,25.68
2017-10-21T12:38:29.382Z,25.66
2017-10-21T12:40:55.648Z,25.04
2017-10-21T12:43:22.026Z,25.63
2017-10-21T12:45:48.320Z,25.02
2017-10-21T12:48:14.555Z,24.32
2017-10-21T12:50:40.815Z,24.79
2017-10-21T12:53:07.114Z,24.83
2017-10-21T12:55:33.386Z,25.34
2017-10-21T12:57:59.637Z,25.87
2017-10-21T13:00:25.886Z,24.39
2017-10-21T13:02:52.144Z,24.87
2017-10-21T13:05:18.437Z,24.24
2017-10-21T13:07:44.927Z,24.24
2017-10-21T13:10:11.166Z,23.97
2017-10-21T13:12:37.415Z,24.11
2017-10-21T13:15:03.750Z,25.01
2017-10-21T13:17:30.022Z,25.18
2017-10-21T13:19:56.329Z,25.20
2017-10-21T13:22:22.677Z,25.92
2017-10-21T13:24:48.998Z,25.94
2017-10-21T13:27:15.323Z,25.72
2017-10-21T13:29:41.671Z,25.78
2017-10-21T13:32:08.051Z,25.47
2017-10-21T13:34:34.325Z,25.28
2017-10-21T13:37:00.684Z,25.67
2017-10-21T13:39:27.005Z,25.99
2017-10-21T13:41:53.339Z,24.85
2017-10-21T13:44:19.720Z,24.69
2017-10-21T13:46:46.078Z,25.28
2017-10-21T13:49:13.369Z,25.59
2017-10-21T13:51:39.605Z,26.12
2017-10-21T13:54:05.834Z,25.70
2017-10-21T13:56:32.077Z,25.02
2017-10-21T13:58:58.334Z,25.29
2017-10-21T14:01:24.584Z,25.31
2017-10-21T14:03:50.824Z,24.55
2017-10-21T14:06:17.102Z,24.88
2017-10-21T14:08:43.344Z,24.73
2017-10-21T14:11:09.598Z,25.65
2017-10-21T14:13:35.875Z,26.39
2017-10-21T14:16:02.132Z,26.39
2017-10-21T14:18:28.393Z,26.47
2017-10-21T14:20:54.630Z,27.01
2017-10-21T14:23:20.866Z,27.76
2017-10-21T14:25:47.112Z,28.49
2017-10-21T14:28:13.365Z,27.98
2017-10-21T14:30:39.753Z,27.13
2017-10-21T14:33:06.037Z,27.76
2017-10-21T14:35:33.607Z,28.75
2017-10-21T14:37:59.865Z,30.26
2017-10-21T14:40:26.135Z,30.95
2017-10-21T14:42:52.461Z,31.36
2017-10-21T14:45:18.790Z,31.64
2017-10-21T14:47:45.123Z,31.33
2017-10-21T14:50:11.512Z,30.23
2017-10-21T14:52:38.000Z,31.01
2017-10-21T14:55:04.380Z,31.21
2017-10-21T14:57:30.648Z,32.13
2017-10-21T14:59:56.985Z,32.56
2017-10-21T15:02:23.367Z,33.74
2017-10-21T15:04:49.674Z,33.85
2017-10-21T15:07:15.977Z,34.10
2017-10-21T15:09:42.314Z,35.29
2017-10-21T15:12:08.633Z,36.01
2017-10-21T15:14:34.976Z,35.56
2017-10-21T15:17:01.314Z,36.27
2017-10-21T15:19:27.647Z,37.53
2017-10-21T15:21:53.978Z,38.23
2017-10-21T15:24:20.291Z,38.83
2017-10-21T15:26:46.614Z,37.01
2017-10-21T15:29:12.955Z,37.42
2017-10-21T15:31:39.347Z,37.32
2017-10-21T15:34:05.615Z,38.78
2017-10-21T15:36:31.875Z,39.17
2017-10-21T15:38:58.148Z,39.72
2017-10-21T15:41:24.386Z,40.05
2017-10-21T15:43:50.665Z,40.45
2017-10-21T15:46:16.948Z,41.44
2017-10-21T15:48:43.190Z,42.22
2017-10-21T15:51:09.462Z,43.07
2017-10-21T15:53:35.721Z,43.60
2017-10-21T15:56:01.994Z,43.89
2017-10-21T15:58:28.241Z,43.99
2017-10-21T16:00:54.475Z,43.96
2017-10-21T16:03:20.743Z,44.87
2017-10-21T16:05:46.998Z,44.72
2017-10-21T16:08:13.245Z,45.32
2017-10-21T16:10:39.500Z,44.90
2017-10-21T16:13:05.759Z,45.21
2017-10-21T16:15:32.031Z,45.74
2017-10-21T16:17:58.267Z,45.92
2017-10-21T16:20:24.516Z,45.91
2017-10-21T16:22:50.770Z,46.17
2017-10-21T16:25:17.029Z,46.52
2017-10-21T16:27:43.354Z,46.92
2017-10-21T16:30:09.609Z,47.68
2017-10-21T16:32:35.851Z,48.47
2017-10-21T16:35:02.104Z,48.61
2017-10-21T16:37:28.347Z,48.66
2017-10-21T16:39:54.648Z,48.56
2017-10-21T16:42:20.918Z,50.09
2017-10-21T16:44:47.167Z,49.83
2017-10-21T16:47:13.423Z,48.91
2017-10-21T16:49:39.681Z,49.78
2017-10-21T16:52:05.976Z,49.40
2017-10-21T16:54:32.230Z,51.12
2017-10-21T16:56:58.482Z,51.78
2017-10-21T16:59:24.746Z,52.20
2017-10-21T17:01:50.994Z,53.53
2017-10-21T17:04:17.282Z,52.05
2017-10-21T17:06:43.555Z,53.73
2017-10-21T17:09:09.817Z,53.39
2017-10-21T17:11:36.099Z,54.13
2017-10-21T17:14:02.350Z,54.94
2017-10-21T17:16:29.599Z,54.44
2017-10-21T17:18:55.851Z,55.54
2017-10-21T17:21:22.131Z,56.21
2017-10-21T17:23:48.416Z,55.69
2017-10-21T17:26:14.682Z,55.97
2017-10-21T17:28:40.959Z,56.60
2017-10-21T17:31:07.195Z,56.80
2017-10-21T17:33:33.431Z,57.68
2017-10-21T17:35:59.725Z,58.46
2017-10-21T17:38:26.029Z,58.22
2017-10-21T17:40:52.262Z,58.70
2017-10-21T17:43:18.542Z,58.53
2017-10-21T17:45:44.790Z,59.63
2017-10-21T17:48:11.099Z,60.28
2017-10-21T17:50:37.373Z,60.70
2017-10-21T17:53:03.646Z,60.56
2017-10-21T17:55:29.898Z,60.36
2017-10-21T17:57:56.162Z,60.86
2017-10-21T18:00:22.439Z,60.48
2017-10-21T18:02:48.695Z,60.93
2017-10-21T18:05:15.426Z,61.19
2017-10-21T18:07:41.680Z,60.95
2017-10-21T18:10:07.934Z,61.08
2017-10-21T18:12:34.210Z,61.36
2017-10-21T18:15:00.457Z,61.30
2017-10-21T18:17:26.715Z,61.98
2017-10-21T18:19:52.991Z,61.50
2017-10-21T18:22:19.268Z,62.12
2017-10-21T18:24:45.521Z,62.31
2017-10-21T18:27:11.762Z,62.64
2017-10-21T18:29:38.006Z,63.05
2017-10-21T18:32:04.303Z,63.02
2017-10-21T18:34:30.576Z,63.81
2017-10-21T18:36:56.833Z,63.72
2017-10-21T18:39:23.121Z,63.66
2017-10-21T18:41:49.419Z,63.85
2017-10-21T18:44:15.685Z,64.54
2017-10-21T18:46:41.950Z,64.30
2017-10-21T18:49:08.216Z,65.83
2017-10-21T18:51:34.505Z,65.85
2017-10-21T18:54:00.764Z,66.18
2017-10-21T18:56:27.010Z,67.66
2017-10-21T18:58:53.247Z,66.97
2017-10-21T19:01:19.499Z,67.92
2017-10-21T19:03:45.856Z,68.09
2017-10-21T19:06:12.122Z,68.26
2017-10-21T19:08:38.380Z,67.58
2017-10-21T19:11:04.609Z,67.14
2017-10-21T19:13:30.907Z,67.38
2017-10-21T19:15:57.174Z,67.20
2017-10-21T19:18:23.448Z,67.38
2017-10-21T19:20:49.697Z,68.35
2017-10-21T19:23:16.094Z,68.77
2017-10-21T19:25:42.365Z,68.85
2017-10-21T19:28:08.667Z,69.19
2017-10-21T19:30:34.920Z,69.46
2017-10-21T19:33:01.168Z,68.71
2017-10-21T19:35:27.432Z,68.26
2017-10-21T19:37:53.673Z,68.69
2017-10-21T19:40:19.969Z,69.59
2017-10-21T19:42:46.211Z,70.07
2017-10-21T19:45:12.448Z,70.79
2017-10-21T19:47:38.745Z,71.01
2017-10-21T19:50:04.997Z,71.34
2017-10-21T19:52:31.297Z,71.26
2017-10-21T19:54:57.556Z,72.03
2017-10-21T19:57:23.817Z,72.52
2017-10-21T19:59:50.066Z,72.42
2017-10-21T20:02:16.328Z,72.44
2017-10-21T20:04:42.622Z,72.57
2017-10-21T20:07:08.885Z,72.83
2017-10-21T20:09:35.178Z,72.93
2017-10-21T20:12:01.434Z,73.14
2017-10-21T20:14:27.688Z,73.50
2017-10-21T20:16:53.991Z,73.85
2017-10-21T20:19:20.301Z,74.04
2017-10-21T20:21:46.561Z,74.47
2017-10-21T20:24:12.834Z,74.46
2017-10-21T20:26:39.078Z,74.80
2017-10-21T20:29:05.366Z,75.01
2017-10-21T20:31:31.620Z,74.89
2017-10-21T20:33:57.941Z,75.10
2017-10-21T20:36:24.212Z,74.53
2017-10-21T20:38:50.450Z,74.63
2017-10-21T20:41:16.725Z,74.73
2017-10-21T20:43:42.991Z,74.68
2017-10-21T20:46:09.232Z,74.28
2017-10-21T20:48:35.659Z,74.45
2017-10-21T20:51:01.906Z,74.98
2017-10-21T20:53:28.193Z,75.39
2017-10-21T20:55:54.454Z,75.92
2017-10-21T20:58:20.718Z,75.46
2017-10-21T21:00:46.952Z,76.01
2017-10-21T21:03:13.194Z,76.42
2017-10-21T21:05:39.487Z,76.23
2017-10-21T21:08:05.752Z,77.09
2017-10-21T21:10:32.034Z,76.89
2017-10-21T21:12:58.312Z,77.10
2017-10-21T21:15:24.596Z,77.20
2017-10-21T21:17:50.829Z,77.04
2017-10-21T21:20:17.060Z,76.67
2017-10-21T21:22:43.333Z,77.00
2017-10-21T21:25:09.634Z,77.40
2017-10-21T21:27:35.882Z,77.79
2017-10-21T21:30:02.119Z,77.59
2017-10-21T21:32:28.421Z,77.30
2017-10-21T21:34:54.656Z,77.11
2017-10-21T21:37:20.888Z,77.25
2017-10-21T21:39:47.130Z,77.36
2017-10-21T21:42:13.375Z,77.43
2017-10-21T21:44:39.640Z,77.62
2017-10-21T21:47:05.876Z,77.72
2017-10-21T21:49:32.113Z,78.47
2017-10-21T21:51:58.360Z,78.44
2017-10-21T21:54:24.595Z,78.87
2017-10-21T21:56:50.902Z,78.63
2017-10-21T21:59:17.138Z,78.44
2017-10-21T22:01:43.393Z,78.55
2017-10-21T22:04:09.645Z,79.77
2017-10-21T22:06:35.894Z,79.93
2017-10-21T22:09:02.190Z,79.85
2017-10-21T22:11:28.441Z,80.01
2017-10-21T22:13:54.679Z,79.41
2017-10-21T22:16:20.921Z,79.48
2017-10-21T22:18:47.148Z,79.59
2017-10-21T22:21:13.416Z,79.51
2017-10-21T22:23:39.657Z,79.77
2017-10-21T22:26:05.907Z,80.01
2017-10-21T22:28:32.148Z,80.83
2017-10-21T22:30:58.391Z,80.93
2017-10-21T22:33:24.679Z,80.92
2017-10-21T22:35:50.946Z,80.79
2017-10-21T22:38:17.209Z,80.69
2017-10-21T22:40:43.453Z,80.90
2017-10-21T22:43:09.691Z,81.05
2017-10-21T22:45:35.967Z,80.63
2017-10-21T22:48:02.208Z,80.56
2017-10-21T22:50:28.463Z,80.45
2017-10-21T22:52:54.706Z,79.96
2017-10-21T22:55:20.943Z,80.21
2017-10-21T22:57:47.219Z,80.54
2017-10-21T23:00:13.474Z,80.93
2017-10-21T23:02:39.747Z,81.28
2017-10-21T23:05:05.997Z,81.77
2017-10-21T23:07:32.234Z,81.74
2017-10-21T23:09:58.513Z,82.13
2017-10-21T23:12:24.769Z,81.93
2017-10-21T23:14:51.022Z,82.20
2017-10-21T23:17:17.271Z,82.20
2017-10-21T23:19:43.500Z,82.11
2017-10-21T23:22:09.805Z,81.98
2017-10-21T23:24:36.066Z,82.42
2017-10-21T23:27:02.319Z,82.07
2017-10-21T23:29:28.567Z,81.59
2017-10-21T23:31:54.819Z,81.40
2017-10-21T23:34:21.088Z,81.65
2017-10-21T23:36:47.321Z,81.54
2017-10-21T23:39:13.565Z,81.01
2017-10-21T23:41:39.825Z,80.55
2017-10-21T23:44:06.069Z,80.34
2017-10-21T23:46:32.363Z,80.20
2017-10-21T23:48:58.624Z,79.99
2017-10-21T23:51:24.865Z,80.01
2017-10-21T23:53:51.102Z,80.07
2017-10-21T23:56:17.339Z,80.30
2017-10-21T23:58:43.618Z,79.61
